Time;durP1;ratioP1;P1;durP2;ratioP2;P2;SDS_P1;SDS_P2;PMS_P1;PMS_P2;Temp;Humidity;BMP_temperature;BMP_pressure;BME280_temperature;BME280_humidity;BME280_pressure;Samples;Min_cycle;Max_cycle;Signal;HPM_P1;HPM_P2
2023/07/13 00:01:35;;;;;;;3.40;2.10;;;21.50;67.40;;;;;;5042204;28;20024;-62
2023/07/13 00:04:01;;;;;;;7.63;2.08;;;21.50;67.30;;;;;;5044360;28;20068;-62
2023/07/13 00:06:32;;;;;;;3.65;2.10;;;21.50;67.30;;;;;;5043142;28;20052;-63
2023/07/13 00:08:59;;;;;;;4.43;2.10;;;21.50;67.20;;;;;;5044996;28;20079;-61
2023/07/13 00:11:25;;;;;;;4.15;1.92;;;21.40;67.00;;;;;;5039162;28;20025;-62
2023/07/13 00:13:51;;;;;;;4.15;2.40;;;21.40;66.70;;;;;;5047532;28;20025;-61
2023/07/13 00:16:18;;;;;;;5.10;2.25;;;21.40;66.60;;;;;;5022496;28;20486;-61
2023/07/13 00:18:45;;;;;;;4.95;2.40;;;21.40;66.80;;;;;;5041478;28;20033;-62
2023/07/13 00:21:11;;;;;;;5.07;2.50;;;21.40;66.50;;;;;;5040357;28;20067;-63
2023/07/13 00:23:40;;;;;;;2.67;1.98;;;21.40;66.50;;;;;;5036205;28;20037;-62
2023/07/13 00:26:08;;;;;;;4.95;2.05;;;21.40;66.60;;;;;;5019541;28;20037;-61
2023/07/13 00:28:34;;;;;;;9.30;2.35;;;21.40;66.30;;;;;;5045157;28;20570;-61
2023/07/13 00:31:01;;;;;;;5.55;1.92;;;21.40;66.30;;;;;;5043463;28;20036;-61
2023/07/13 00:33:28;;;;;;;5.28;2.80;;;21.40;66.60;;;;;;5042811;28;20025;-63
2023/07/13 00:35:56;;;;;;;7.18;2.40;;;21.40;66.90;;;;;;5042557;28;20074;-61
2023/07/13 00:38:23;;;;;;;2.80;2.17;;;21.30;66.90;;;;;;5043889;28;20102;-62
2023/07/13 00:40:48;;;;;;;5.45;1.90;;;21.30;66.90;;;;;;4992279;28;20032;-62
2023/07/13 00:43:21;;;;;;;2.42;1.80;;;21.30;67.00;;;;;;5046165;28;20043;-62
2023/07/13 00:45:47;;;;;;;4.18;1.92;;;21.30;67.40;;;;;;5048687;28;20033;-61
2023/07/13 00:48:18;;;;;;;4.22;1.80;;;21.30;67.40;;;;;;5050846;28;20124;-61
2023/07/13 00:50:46;;;;;;;4.53;1.80;;;21.30;67.60;;;;;;5059684;28;20037;-62
2023/07/13 00:53:13;;;;;;;2.95;1.75;;;21.30;67.60;;;;;;5027217;28;20049;-61
2023/07/13 00:55:39;;;;;;;5.75;2.03;;;21.30;67.60;;;;;;5043257;28;20049;-62
2023/07/13 00:58:06;;;;;;;3.00;2.05;;;21.30;67.50;;;;;;5041893;28;20029;-63
2023/07/13 01:00:34;;;;;;;2.97;1.60;;;21.30;67.60;;;;;;5038938;28;20021;-62
2023/07/13 01:03:04;;;;;;;3.38;1.90;;;21.30;67.50;;;;;;5039389;28;20048;-61
2023/07/13 01:05:31;;;;;;;4.18;2.00;;;21.30;67.50;;;;;;5041579;28;20025;-62
2023/07/13 01:07:58;;;;;;;2.25;1.73;;;21.30;67.30;;;;;;5045212;28;20037;-61
2023/07/13 01:10:25;;;;;;;4.22;2.10;;;21.30;67.40;;;;;;5043336;28;20104;-61
2023/07/13 01:12:52;;;;;;;3.88;1.77;;;21.30;67.40;;;;;;5045476;28;20100;-62
2023/07/13 01:15:39;;;;;;;10.10;1.92;;;21.30;67.30;;;;;;5040064;28;20182;-62
2023/07/13 01:18:19;;;;;;;6.47;2.05;;;21.30;67.80;;;;;;5044211;28;20071;-60
2023/07/13 01:20:52;;;;;;;2.70;1.75;;;21.30;67.50;;;;;;5044494;28;20025;-62
2023/07/13 01:23:19;;;;;;;8.63;2.30;;;21.30;67.30;;;;;;5044908;28;20045;-62
2023/07/13 01:25:45;;;;;;;3.10;2.05;;;21.20;67.10;;;;;;5042700;28;20033;-62
2023/07/13 01:28:11;;;;;;;4.03;1.92;;;21.20;67.10;;;;;;5039439;28;20075;-62
2023/07/13 01:30:39;;;;;;;3.55;1.95;;;21.20;67.10;;;;;;5045814;28;20081;-62
2023/07/13 01:33:06;;;;;;;4.88;2.28;;;21.20;67.10;;;;;;5041129;28;20032;-61
2023/07/13 01:35:33;;;;;;;4.78;1.60;;;21.10;67.20;;;;;;5043893;28;20021;-62
2023/07/13 01:38:00;;;;;;;7.78;2.10;;;21.10;67.10;;;;;;5038693;28;20033;-61
2023/07/13 01:40:26;;;;;;;4.00;2.15;;;21.10;67.00;;;;;;5039092;28;20028;-62
2023/07/13 01:42:51;;;;;;;7.95;1.85;;;21.00;66.90;;;;;;5043496;28;20033;-62
2023/07/13 01:45:17;;;;;;;3.50;1.80;;;21.00;66.90;;;;;;5043597;28;20032;-63
2023/07/13 01:47:42;;;;;;;5.95;1.60;;;21.00;66.80;;;;;;5035029;28;20058;-63
2023/07/13 01:50:09;;;;;;;3.17;1.52;;;21.00;66.90;;;;;;5044188;28;20037;-62
2023/07/13 01:52:34;;;;;;;1.80;1.60;;;21.00;66.90;;;;;;5043985;28;20021;-62
2023/07/13 01:55:00;;;;;;;2.28;1.40;;;21.00;66.50;;;;;;5043709;28;20056;-61
2023/07/13 01:57:26;;;;;;;2.47;1.42;;;20.90;66.60;;;;;;5039431;28;20033;-62
2023/07/13 01:59:51;;;;;;;12.52;1.58;;;20.90;65.20;;;;;;5037466;28;20028;-61
2023/07/13 02:02:17;;;;;;;5.80;1.40;;;20.90;64.90;;;;;;5037593;28;20112;-61
2023/07/13 02:04:43;;;;;;;6.15;1.40;;;20.90;64.60;;;;;;5035502;28;20060;-62
2023/07/13 02:07:09;;;;;;;3.95;1.35;;;20.90;64.60;;;;;;5041452;28;20491;-61
2023/07/13 02:09:35;;;;;;;2.78;1.30;;;20.90;64.40;;;;;;5021604;28;20028;-62
2023/07/13 02:12:01;;;;;;;2.88;1.10;;;20.90;63.80;;;;;;5044381;28;20032;-61
2023/07/13 02:14:26;;;;;;;3.22;1.65;;;20.80;63.40;;;;;;5045777;28;20029;-61
2023/07/13 02:16:52;;;;;;;2.08;1.35;;;20.80;63.10;;;;;;5041568;28;20110;-61
2023/07/13 02:19:18;;;;;;;8.85;2.03;;;20.80;62.90;;;;;;5042403;28;20163;-61
2023/07/13 02:21:43;;;;;;;4.60;1.15;;;20.80;62.50;;;;;;5046976;28;20112;-62
2023/07/13 02:24:09;;;;;;;6.20;1.20;;;20.80;62.20;;;;;;5045450;28;20028;-61
2023/07/13 02:26:35;;;;;;;4.15;1.30;;;20.70;62.00;;;;;;5042174;28;20151;-61
2023/07/13 02:29:01;;;;;;;2.30;1.17;;;20.70;62.00;;;;;;5034085;28;20140;-61
2023/07/13 02:31:27;;;;;;;8.45;1.25;;;20.70;61.40;;;;;;5045534;28;20143;-61
2023/07/13 02:33:52;;;;;;;4.68;1.30;;;20.70;61.20;;;;;;5045281;28;20476;-61
2023/07/13 02:36:19;;;;;;;2.30;1.10;;;20.60;60.30;;;;;;5044601;28;20024;-61
2023/07/13 02:38:54;;;;;;;2.17;0.98;;;20.60;60.10;;;;;;5041285;28;20108;-61
2023/07/13 02:41:19;;;;;;;2.78;1.10;;;20.60;59.80;;;;;;5045451;28;20028;-61
2023/07/13 02:43:45;;;;;;;3.30;1.30;;;20.60;59.50;;;;;;5041618;28;20059;-61
2023/07/13 02:46:11;;;;;;;7.07;1.08;;;20.60;59.60;;;;;;5044737;28;20033;-61
2023/07/13 02:48:38;;;;;;;2.70;1.02;;;20.60;59.70;;;;;;5047392;28;20020;-61
2023/07/13 02:51:04;;;;;;;2.40;1.23;;;20.60;59.30;;;;;;5023534;28;20116;-61
2023/07/13 02:53:30;;;;;;;2.13;1.35;;;20.60;59.20;;;;;;5038540;28;20037;-62
2023/07/13 02:55:56;;;;;;;2.55;1.30;;;20.60;58.90;;;;;;5045699;28;20064;-63
2023/07/13 02:58:22;;;;;;;4.38;1.42;;;20.60;58.90;;;;;;5041755;28;20025;-61
2023/07/13 03:00:49;;;;;;;3.42;1.00;;;20.50;58.80;;;;;;5045876;28;20056;-61
2023/07/13 03:03:16;;;;;;;5.13;1.13;;;20.50;58.80;;;;;;5019845;28;20071;-62
2023/07/13 03:05:44;;;;;;;2.42;1.05;;;20.50;58.70;;;;;;5041595;28;20017;-63
2023/07/13 03:08:11;;;;;;;2.20;1.10;;;20.50;58.40;;;;;;5040903;28;20047;-60
2023/07/13 03:10:39;;;;;;;1.25;1.15;;;20.50;58.40;;;;;;5036923;28;20037;-62
2023/07/13 03:13:05;;;;;;;2.50;1.30;;;20.40;58.30;;;;;;5045082;28;20025;-61
2023/07/13 03:15:30;;;;;;;3.42;1.40;;;20.40;58.20;;;;;;5045225;28;20029;-63
2023/07/13 03:17:56;;;;;;;1.20;1.10;;;20.40;58.50;;;;;;5032278;28;20037;-61
2023/07/13 03:20:22;;;;;;;2.80;0.90;;;20.40;58.70;;;;;;5045663;28;20070;-61
2023/07/13 03:22:47;;;;;;;1.23;1.02;;;20.30;58.50;;;;;;5041135;28;20036;-61
2023/07/13 03:25:13;;;;;;;2.28;1.10;;;20.30;58.60;;;;;;5019241;28;20028;-61
2023/07/13 03:27:39;;;;;;;2.15;1.17;;;20.30;58.40;;;;;;5038769;28;20047;-62
2023/07/13 03:30:06;;;;;;;7.43;1.08;;;20.20;58.30;;;;;;5044079;28;20025;-63
2023/07/13 03:32:32;;;;;;;2.08;1.10;;;20.20;58.30;;;;;;5045335;28;20028;-60
2023/07/13 03:34:58;;;;;;;2.60;1.10;;;20.20;58.30;;;;;;5040679;28;20028;-62
2023/07/13 03:37:24;;;;;;;7.30;1.52;;;20.10;58.40;;;;;;5041925;28;20031;-61
2023/07/13 03:39:50;;;;;;;2.90;1.27;;;20.10;58.40;;;;;;5047645;28;20103;-61
2023/07/13 03:42:16;;;;;;;3.97;1.15;;;20.10;58.10;;;;;;5047915;28;20082;-61
2023/07/13 03:44:45;;;;;;;2.95;1.17;;;20.00;57.80;;;;;;5045573;28;20088;-61
2023/07/13 03:47:11;;;;;;;2.42;1.00;;;20.00;57.80;;;;;;5049826;28;20025;-62
2023/07/13 03:49:37;;;;;;;3.67;1.25;;;20.00;57.80;;;;;;5056287;28;20084;-61
2023/07/13 03:52:03;;;;;;;3.33;0.90;;;19.90;57.50;;;;;;5052806;28;20024;-61
2023/07/13 03:54:29;;;;;;;4.30;1.10;;;19.90;57.70;;;;;;5044140;28;20048;-63
2023/07/13 03:56:55;;;;;;;1.95;1.17;;;19.90;57.60;;;;;;5045960;28;20466;-65
2023/07/13 03:59:21;;;;;;;3.92;1.17;;;19.90;57.80;;;;;;5045879;28;20037;-62
2023/07/13 04:01:47;;;;;;;2.13;1.10;;;19.90;57.70;;;;;;5042591;28;20545;-62
2023/07/13 04:04:12;;;;;;;2.90;1.10;;;19.80;57.50;;;;;;5045667;28;20025;-61
2023/07/13 04:06:38;;;;;;;1.38;0.90;;;19.90;57.70;;;;;;5039242;28;20033;-62
2023/07/13 04:09:08;;;;;;;3.05;1.00;;;19.80;57.70;;;;;;5026864;28;20115;-60
2023/07/13 04:11:36;;;;;;;1.73;1.00;;;19.80;57.70;;;;;;5045176;28;20024;-62
2023/07/13 04:14:02;;;;;;;2.78;1.15;;;19.80;57.90;;;;;;5046034;28;20527;-62
2023/07/13 04:16:28;;;;;;;2.30;1.10;;;19.80;58.10;;;;;;5040210;28;20053;-63
2023/07/13 04:18:59;;;;;;;4.35;1.20;;;19.80;58.50;;;;;;5042455;28;20087;-61
2023/07/13 04:21:26;;;;;;;3.75;1.00;;;19.80;58.40;;;;;;5044589;28;20037;-63
2023/07/13 04:23:52;;;;;;;2.58;1.05;;;19.80;58.20;;;;;;5041022;28;20033;-61
2023/07/13 04:26:20;;;;;;;6.18;1.10;;;19.80;58.30;;;;;;5047574;28;20045;-60
2023/07/13 04:28:47;;;;;;;1.83;1.10;;;19.80;58.30;;;;;;5048025;28;20021;-61
2023/07/13 04:31:13;;;;;;;1.77;1.02;;;19.80;58.40;;;;;;5040004;28;20064;-61
2023/07/13 04:33:39;;;;;;;3.10;1.05;;;19.90;58.60;;;;;;5042811;28;20507;-60
2023/07/13 04:36:05;;;;;;;2.17;1.00;;;19.90;58.60;;;;;;5044044;28;20036;-61
2023/07/13 04:38:32;;;;;;;2.97;1.08;;;19.90;58.50;;;;;;5044570;28;20098;-60
2023/07/13 04:41:04;;;;;;;2.85;1.58;;;20.00;58.50;;;;;;5040484;28;20060;-60
2023/07/13 04:43:31;;;;;;;2.10;1.00;;;20.00;58.50;;;;;;5047034;28;20025;-62
2023/07/13 04:46:02;;;;;;;3.28;1.30;;;20.10;58.60;;;;;;5044949;28;20027;-60
2023/07/13 04:48:27;;;;;;;3.83;1.30;;;20.10;58.50;;;;;;5047990;28;20037;-61
2023/07/13 04:50:58;;;;;;;3.75;1.33;;;20.10;58.40;;;;;;5046043;28;20565;-62
2023/07/13 04:53:24;;;;;;;2.13;1.20;;;20.10;58.20;;;;;;5044203;28;20017;-60
2023/07/13 04:55:50;;;;;;;2.22;0.98;;;20.20;58.40;;;;;;5040490;28;20395;-62
2023/07/13 04:58:16;;;;;;;5.22;1.10;;;20.20;58.50;;;;;;5023451;28;20025;-60
2023/07/13 05:00:42;;;;;;;5.68;1.02;;;20.20;58.80;;;;;;5043604;28;20487;-61
2023/07/13 05:03:07;;;;;;;3.63;1.17;;;20.20;58.80;;;;;;5043651;28;20032;-62
2023/07/13 05:05:33;;;;;;;10.48;1.25;;;20.20;58.50;;;;;;5046474;28;20028;-62
2023/07/13 05:07:59;;;;;;;3.90;1.10;;;20.30;58.60;;;;;;5045028;28;20036;-62
2023/07/13 05:10:25;;;;;;;7.10;1.30;;;20.30;58.90;;;;;;5043444;28;20119;-61
2023/07/13 05:12:51;;;;;;;3.63;1.30;;;20.40;59.20;;;;;;5039981;28;20444;-61
2023/07/13 05:15:21;;;;;;;4.72;1.08;;;20.40;59.10;;;;;;5043752;28;20028;-61
2023/07/13 05:17:47;;;;;;;2.70;0.98;;;20.40;59.00;;;;;;5043366;28;20060;-61
2023/07/13 05:20:13;;;;;;;2.20;1.02;;;20.50;58.90;;;;;;5038402;28;20960;-62
2023/07/13 05:22:39;;;;;;;4.38;1.02;;;20.50;58.90;;;;;;5036937;28;20104;-62
2023/07/13 05:25:06;;;;;;;1.77;0.98;;;20.60;59.10;;;;;;5045560;28;20031;-61
2023/07/13 05:27:32;;;;;;;4.75;1.10;;;20.60;59.20;;;;;;5042260;28;20395;-60
2023/07/13 05:29:58;;;;;;;2.05;1.15;;;20.70;59.30;;;;;;5046811;28;20025;-61
2023/07/13 05:32:23;;;;;;;4.70;1.30;;;20.70;59.20;;;;;;5043535;28;20374;-61
2023/07/13 05:34:49;;;;;;;3.10;1.13;;;20.80;59.20;;;;;;5044534;28;20037;-61
2023/07/13 05:37:15;;;;;;;2.05;1.20;;;20.80;58.90;;;;;;5040188;28;20029;-61
2023/07/13 05:39:40;;;;;;;8.55;1.10;;;20.90;58.80;;;;;;5042234;28;20025;-61
2023/07/13 05:42:06;;;;;;;5.35;1.10;;;20.90;58.60;;;;;;5037102;28;20057;-60
2023/07/13 05:44:32;;;;;;;3.80;1.17;;;20.90;58.40;;;;;;5041381;28;20024;-60
2023/07/13 05:46:57;;;;;;;4.10;1.17;;;20.90;58.20;;;;;;5038594;28;20045;-61
2023/07/13 05:49:24;;;;;;;2.08;0.98;;;20.90;58.40;;;;;;5036376;28;20112;-62
2023/07/13 05:51:49;;;;;;;5.75;1.40;;;20.90;58.50;;;;;;5040525;28;20029;-60
2023/07/13 05:54:15;;;;;;;3.78;1.25;;;21.00;58.70;;;;;;5045554;28;20539;-61
2023/07/13 05:56:41;;;;;;;3.65;1.27;;;21.00;58.90;;;;;;5046992;28;20071;-61
2023/07/13 05:59:07;;;;;;;6.00;1.33;;;21.10;58.50;;;;;;5047907;28;20021;-62
2023/07/13 06:01:32;;;;;;;2.75;1.05;;;21.10;58.10;;;;;;5045316;28;20108;-62
2023/07/13 06:03:58;;;;;;;2.83;1.15;;;21.20;58.20;;;;;;5042253;28;20052;-62
2023/07/13 06:06:24;;;;;;;3.42;1.10;;;21.20;58.20;;;;;;5042161;28;20028;-61
2023/07/13 06:08:50;;;;;;;3.53;1.15;;;21.30;58.10;;;;;;5018224;28;20025;-61
2023/07/13 06:11:21;;;;;;;4.50;1.15;;;21.40;58.00;;;;;;5018793;28;20029;-61
2023/07/13 06:13:47;;;;;;;4.05;1.10;;;21.50;57.60;;;;;;5019964;28;20033;-61
2023/07/13 06:16:14;;;;;;;5.22;1.25;;;21.70;57.40;;;;;;5046169;28;20033;-60
2023/07/13 06:18:40;;;;;;;2.75;1.00;;;21.70;57.40;;;;;;5044626;28;20074;-61
2023/07/13 06:21:11;;;;;;;2.45;1.10;;;21.80;56.90;;;;;;5044968;28;20082;-61
2023/07/13 06:23:37;;;;;;;2.20;1.30;;;21.80;56.60;;;;;;5046357;28;20021;-60
2023/07/13 06:26:04;;;;;;;2.75;0.80;;;21.80;56.90;;;;;;5045427;28;20032;-62
2023/07/13 06:28:31;;;;;;;2.75;1.10;;;21.90;56.60;;;;;;5044784;28;20083;-61
2023/07/13 06:30:58;;;;;;;3.85;1.02;;;21.90;56.10;;;;;;5042764;28;20036;-62
2023/07/13 06:33:24;;;;;;;1.40;0.90;;;21.90;55.50;;;;;;5042090;28;20021;-62
2023/07/13 06:35:49;;;;;;;4.63;1.05;;;21.90;55.10;;;;;;5033626;28;20094;-62
2023/07/13 06:38:15;;;;;;;2.60;1.00;;;21.90;55.00;;;;;;5043938;28;20033;-62
2023/07/13 06:40:41;;;;;;;7.50;1.10;;;21.90;54.90;;;;;;5041034;28;20395;-62
2023/07/13 06:43:07;;;;;;;1.92;0.82;;;21.80;55.00;;;;;;5040773;28;20033;-62
2023/07/13 06:45:54;;;;;;;2.78;1.00;;;21.80;55.00;;;;;;5042868;28;20386;-62
2023/07/13 06:48:20;;;;;;;3.30;1.00;;;21.90;54.60;;;;;;5044415;28;20118;-63
2023/07/13 06:50:47;;;;;;;3.38;1.33;;;22.00;55.20;;;;;;5047948;28;20400;-62
2023/07/13 06:53:13;;;;;;;4.38;1.10;;;22.10;55.20;;;;;;5051797;28;20033;-62
2023/07/13 06:55:39;;;;;;;5.10;1.45;;;22.30;55.40;;;;;;5048774;28;20533;-62
2023/07/13 06:58:06;;;;;;;4.70;1.13;;;22.40;54.80;;;;;;5044806;28;20549;-62
2023/07/13 07:00:32;;;;;;;3.60;1.38;;;22.60;54.50;;;;;;5037662;28;20029;-62
2023/07/13 07:02:57;;;;;;;2.22;0.90;;;22.70;53.80;;;;;;5036867;28;20028;-62
2023/07/13 07:05:23;;;;;;;2.53;0.82;;;22.80;53.60;;;;;;5037130;28;20105;-62
2023/07/13 07:07:54;;;;;;;2.13;0.90;;;22.90;52.00;;;;;;5034538;28;20047;-62
2023/07/13 07:10:20;;;;;;;2.85;0.90;;;23.00;50.90;;;;;;5041721;28;20021;-62
2023/07/13 07:12:46;;;;;;;4.30;1.00;;;23.00;51.20;;;;;;5024960;28;20061;-63
2023/07/13 07:15:12;;;;;;;1.52;0.80;;;23.00;51.30;;;;;;5033748;28;20453;-62
2023/07/13 07:17:38;;;;;;;2.10;0.75;;;23.10;51.50;;;;;;5033971;28;20029;-62
2023/07/13 07:20:04;;;;;;;4.32;1.10;;;23.10;51.00;;;;;;5022437;28;20031;-63
2023/07/13 07:22:30;;;;;;;3.15;1.00;;;23.20;50.40;;;;;;5043227;28;20099;-61
2023/07/13 07:24:57;;;;;;;2.25;1.10;;;23.30;49.30;;;;;;5031442;28;20026;-64
2023/07/13 07:27:24;;;;;;;7.65;1.83;;;23.40;49.20;;;;;;5036459;28;20128;-62
2023/07/13 07:29:50;;;;;;;2.85;0.70;;;23.40;49.20;;;;;;5036114;28;20024;-61
2023/07/13 07:32:16;;;;;;;3.58;1.10;;;23.40;48.30;;;;;;5035465;28;20029;-62
2023/07/13 07:34:42;;;;;;;2.38;1.00;;;23.50;48.80;;;;;;5032759;28;20091;-63
2023/07/13 07:37:12;;;;;;;2.25;1.00;;;23.60;47.90;;;;;;5035797;28;20682;-62
2023/07/13 07:39:37;;;;;;;3.30;1.00;;;23.70;48.40;;;;;;5034697;28;20032;-62
2023/07/13 07:42:03;;;;;;;3.50;0.93;;;23.80;48.60;;;;;;5024788;28;20091;-62
2023/07/13 07:44:31;;;;;;;3.28;0.93;;;23.90;46.80;;;;;;5030657;28;20025;-62
2023/07/13 07:46:56;;;;;;;1.95;0.82;;;24.00;46.60;;;;;;5037072;28;20029;-62
2023/07/13 07:49:22;;;;;;;4.97;0.88;;;24.10;46.70;;;;;;5035891;28;20026;-62
2023/07/13 07:51:48;;;;;;;4.43;0.70;;;24.20;46.90;;;;;;5034280;28;20029;-63
2023/07/13 07:54:14;;;;;;;3.28;0.70;;;24.20;46.60;;;;;;5023339;28;20033;-63
2023/07/13 07:56:40;;;;;;;4.47;1.00;;;24.30;44.90;;;;;;5040419;28;20025;-63
2023/07/13 07:59:06;;;;;;;3.95;0.85;;;24.30;43.90;;;;;;5041164;28;20021;-62
2023/07/13 08:01:31;;;;;;;3.35;1.08;;;24.30;43.30;;;;;;5039689;28;20029;-62
2023/07/13 08:03:57;;;;;;;2.90;0.93;;;24.30;44.00;;;;;;5035404;28;20029;-62
2023/07/13 08:06:23;;;;;;;4.00;0.90;;;24.30;43.00;;;;;;5040297;28;20499;-63
2023/07/13 08:08:49;;;;;;;3.25;0.90;;;24.30;43.60;;;;;;5040062;28;20044;-63
2023/07/13 08:11:15;;;;;;;2.08;0.80;;;24.30;44.90;;;;;;5042089;28;20025;-63
2023/07/13 08:13:41;;;;;;;1.98;0.80;;;24.30;44.40;;;;;;5046001;28;20028;-63
2023/07/13 08:16:07;;;;;;;2.08;0.73;;;24.40;44.20;;;;;;5037607;28;20029;-63
2023/07/13 08:18:33;;;;;;;4.53;0.73;;;24.50;44.10;;;;;;5038052;28;20140;-62
2023/07/13 08:21:04;;;;;;;4.35;0.65;;;24.60;43.90;;;;;;5036289;28;20036;-62
2023/07/13 08:23:29;;;;;;;2.10;0.80;;;24.70;43.10;;;;;;5037950;28;20040;-64
2023/07/13 08:25:55;;;;;;;3.78;0.68;;;24.90;43.60;;;;;;5038686;28;20037;-64
2023/07/13 08:28:22;;;;;;;3.05;0.73;;;25.00;43.00;;;;;;5042019;28;20112;-63
2023/07/13 08:30:51;;;;;;;1.67;0.70;;;25.00;42.10;;;;;;5029833;28;20018;-64
2023/07/13 08:33:21;;;;;;;2.92;0.80;;;25.00;42.30;;;;;;5045610;28;20028;-63
2023/07/13 08:35:50;;;;;;;2.92;0.80;;;25.10;41.50;;;;;;5048967;28;20093;-63
2023/07/13 08:38:17;;;;;;;2.13;0.77;;;25.10;42.00;;;;;;5048076;28;20033;-63
2023/07/13 08:40:44;;;;;;;2.67;0.90;;;25.10;41.20;;;;;;4998042;28;20075;-63
2023/07/13 08:43:16;;;;;;;7.03;1.50;;;25.10;40.90;;;;;;5046751;28;20040;-63
2023/07/13 08:45:55;;;;;;;2.42;0.88;;;25.00;40.20;;;;;;5042893;28;20075;-63
2023/07/13 08:48:44;;;;;;;2.75;1.10;;;25.00;40.00;;;;;;5047297;28;20376;-64
2023/07/13 08:51:44;;;;;;;3.53;0.68;;;24.90;40.50;;;;;;5043861;28;20044;-62
2023/07/13 08:54:15;;;;;;;1.60;0.70;;;24.80;39.90;;;;;;5042957;28;20485;-63
2023/07/13 08:56:41;;;;;;;2.40;0.60;;;24.80;40.80;;;;;;5041421;28;20097;-64
2023/07/13 08:59:16;;;;;;;2.17;0.63;;;24.70;42.10;;;;;;5047453;28;20496;-62
2023/07/13 09:02:06;;;;;;;2.88;0.90;;;24.70;41.40;;;;;;5045439;28;20135;-63
2023/07/13 09:05:12;;;;;;;4.88;0.80;;;24.70;40.40;;;;;;5042778;28;20025;-63
2023/07/13 09:08:00;;;;;;;2.00;0.80;;;24.90;42.00;;;;;;5036279;28;20053;-62
2023/07/13 09:10:41;;;;;;;2.22;0.90;;;25.00;41.90;;;;;;5037054;28;20391;-61
2023/07/13 09:13:41;;;;;;;2.97;0.95;;;25.20;41.20;;;;;;5040711;28;20279;-62
2023/07/13 09:16:09;;;;;;;3.08;0.98;;;25.40;40.60;;;;;;4967500;28;20045;-62
2023/07/13 09:18:58;;;;;;;1.95;0.82;;;25.40;40.40;;;;;;4965867;28;20026;-63
2023/07/13 09:21:30;;;;;;;3.15;1.05;;;25.40;37.90;;;;;;4966836;28;20054;-63
2023/07/13 09:24:17;;;;;;;3.78;0.90;;;25.40;40.00;;;;;;4970334;28;20100;-64
2023/07/13 09:26:43;;;;;;;2.33;0.80;;;25.40;39.50;;;;;;4954365;28;20058;-64
2023/07/13 09:29:20;;;;;;;2.10;0.82;;;25.50;40.70;;;;;;4969215;28;20465;-62
2023/07/13 09:31:52;;;;;;;1.75;0.60;;;25.60;40.30;;;;;;4965023;28;20062;-62
2023/07/13 09:34:18;;;;;;;2.72;0.65;;;25.70;40.20;;;;;;4961198;28;20026;-63
2023/07/13 09:36:44;;;;;;;1.58;0.73;;;25.80;40.40;;;;;;4969554;28;20040;-63
2023/07/13 09:39:27;;;;;;;2.20;0.80;;;26.00;40.30;;;;;;4967858;28;20042;-62
2023/07/13 09:42:12;;;;;;;2.13;0.90;;;26.10;40.30;;;;;;4966450;28;20031;-61
2023/07/13 09:44:49;;;;;;;1.90;0.90;;;26.20;38.70;;;;;;4962430;28;20026;-64
2023/07/13 09:47:18;;;;;;;2.13;0.95;;;26.20;37.80;;;;;;4964622;28;20041;-63
2023/07/13 09:49:45;;;;;;;2.85;0.88;;;26.20;38.70;;;;;;4964592;28;20038;-63
2023/07/13 09:52:14;;;;;;;2.88;0.75;;;26.20;38.10;;;;;;4995285;28;20122;-63
2023/07/13 09:54:43;;;;;;;4.63;1.05;;;26.10;38.00;;;;;;5043141;28;20124;-64
2023/07/13 09:57:16;;;;;;;1.80;0.90;;;26.10;38.40;;;;;;5048300;28;20017;-64
2023/07/13 09:59:47;;;;;;;2.13;0.80;;;26.10;38.50;;;;;;5053348;28;20049;-64
2023/07/13 10:02:32;;;;;;;3.55;0.90;;;26.10;39.30;;;;;;5049968;28;20049;-63
2023/07/13 10:05:13;;;;;;;2.55;0.93;;;26.20;40.20;;;;;;5046624;28;20060;-64
2023/07/13 10:07:44;;;;;;;3.70;1.00;;;26.40;39.50;;;;;;5043680;28;20033;-63
2023/07/13 10:10:21;;;;;;;2.45;1.00;;;26.70;39.20;;;;;;5038155;28;20056;-61
2023/07/13 10:12:47;;;;;;;2.47;0.80;;;26.80;38.00;;;;;;5041575;28;20036;-62
2023/07/13 10:15:20;;;;;;;4.80;1.00;;;26.80;38.00;;;;;;5024145;28;20091;-62
2023/07/13 10:17:46;;;;;;;1.83;0.85;;;26.80;37.30;;;;;;5040505;28;20025;-63
2023/07/13 10:20:12;;;;;;;1.20;0.90;;;26.70;37.60;;;;;;5045209;28;20387;-62
2023/07/13 10:23:02;;;;;;;2.63;1.08;;;26.80;36.90;;;;;;5043248;28;20025;-64
2023/07/13 10:25:32;;;;;;;2.38;0.88;;;26.70;38.00;;;;;;5036885;28;20067;-63
2023/07/13 10:28:34;;;;;;;3.00;1.05;;;26.80;38.40;;;;;;5018989;28;20124;-63
2023/07/13 10:31:02;;;;;;;2.47;0.80;;;26.90;35.80;;;;;;5042748;28;20028;-63
2023/07/13 10:33:28;;;;;;;3.33;1.00;;;27.00;37.80;;;;;;5039961;28;20120;-64
2023/07/13 10:36:13;;;;;;;2.63;0.90;;;27.10;37.80;;;;;;5039583;28;20594;-62
2023/07/13 10:38:40;;;;;;;2.22;0.80;;;27.20;38.10;;;;;;5035754;28;20017;-63
2023/07/13 10:41:11;;;;;;;2.70;1.00;;;27.30;38.10;;;;;;5035095;28;20017;-65
2023/07/13 10:43:45;;;;;;;3.08;0.90;;;27.30;37.00;;;;;;5038618;28;20116;-63
2023/07/13 10:46:15;;;;;;;2.40;0.82;;;27.30;35.60;;;;;;5034018;28;20479;-62
2023/07/13 10:48:43;;;;;;;2.45;1.02;;;27.40;37.30;;;;;;5044154;28;20541;-63
2023/07/13 10:51:11;;;;;;;2.97;1.00;;;27.40;37.40;;;;;;5039752;28;20028;-64
2023/07/13 10:53:42;;;;;;;10.20;1.30;;;27.50;37.30;;;;;;5042908;28;20083;-64
2023/07/13 10:56:12;;;;;;;5.55;1.10;;;27.50;36.60;;;;;;5041900;28;20052;-62
2023/07/13 10:58:44;;;;;;;2.30;1.20;;;27.60;37.40;;;;;;5040377;28;20096;-63
2023/07/13 11:01:17;;;;;;;1.50;0.88;;;27.60;35.80;;;;;;5045144;28;20025;-63
2023/07/13 11:03:53;;;;;;;2.60;0.90;;;27.60;36.00;;;;;;5043381;28;20013;-63
2023/07/13 11:06:29;;;;;;;2.47;0.90;;;27.70;36.70;;;;;;5035249;28;20288;-63
2023/07/13 11:08:57;;;;;;;2.92;1.15;;;27.80;38.30;;;;;;5041075;28;20490;-63
2023/07/13 11:11:23;;;;;;;5.93;0.93;;;28.00;37.80;;;;;;5042887;28;20041;-64
2023/07/13 11:13:49;;;;;;;3.95;1.35;;;28.20;36.30;;;;;;5036718;28;20368;-64
2023/07/13 11:16:17;;;;;;;1.45;0.77;;;28.40;35.90;;;;;;5022865;28;20079;-62
2023/07/13 11:18:52;;;;;;;2.55;1.00;;;28.50;36.50;;;;;;5038796;28;20132;-63
2023/07/13 11:21:26;;;;;;;1.67;0.80;;;28.70;36.70;;;;;;5041547;28;20026;-64
2023/07/13 11:24:03;;;;;;;3.92;1.10;;;28.80;35.70;;;;;;5044574;28;20121;-64
2023/07/13 11:26:50;;;;;;;4.43;0.80;;;28.90;34.90;;;;;;5038806;28;20033;-64
2023/07/13 11:29:31;;;;;;;3.55;0.90;;;28.90;33.80;;;;;;5042495;28;20033;-64
2023/07/13 11:31:59;;;;;;;3.00;0.80;;;28.90;33.90;;;;;;5037161;28;20416;-62
2023/07/13 11:34:38;;;;;;;2.83;1.25;;;28.80;33.60;;;;;;5040487;28;20032;-63
2023/07/13 11:37:10;;;;;;;2.15;0.82;;;28.70;32.70;;;;;;5042153;28;20025;-63
2023/07/13 11:39:41;;;;;;;2.05;0.98;;;28.60;34.30;;;;;;4989443;28;20433;-62
2023/07/13 11:42:14;;;;;;;1.42;0.70;;;28.70;35.20;;;;;;5013811;28;20269;-62
2023/07/13 11:44:51;;;;;;;1.63;1.00;;;28.80;34.80;;;;;;5037621;28;20032;-63
2023/07/13 11:47:22;;;;;;;3.20;0.77;;;28.90;32.60;;;;;;5041601;28;20105;-64
2023/07/13 11:49:59;;;;;;;1.95;0.88;;;28.90;33.50;;;;;;5043571;28;20040;-63
2023/07/13 11:52:44;;;;;;;2.15;0.85;;;29.00;32.90;;;;;;5040780;28;20040;-64
2023/07/13 11:55:20;;;;;;;2.13;0.95;;;29.00;33.20;;;;;;5040946;28;20044;-63
2023/07/13 11:57:51;;;;;;;2.30;0.90;;;29.10;34.70;;;;;;5034463;28;20410;-63
2023/07/13 12:00:22;;;;;;;1.85;0.90;;;29.20;35.20;;;;;;5039301;28;20129;-64
2023/07/13 12:02:51;;;;;;;2.30;0.93;;;29.40;33.20;;;;;;5042569;28;20718;-63
2023/07/13 12:05:18;;;;;;;2.65;0.93;;;29.60;33.60;;;;;;5040609;28;20487;-65
2023/07/13 12:07:44;;;;;;;2.50;0.98;;;29.70;32.60;;;;;;5025014;28;20032;-63
2023/07/13 12:10:24;;;;;;;2.47;0.93;;;29.70;32.40;;;;;;5043765;28;20106;-63
2023/07/13 12:12:56;;;;;;;2.03;0.93;;;29.70;29.20;;;;;;5045023;28;20025;-63
2023/07/13 12:15:23;;;;;;;4.45;1.10;;;29.60;31.00;;;;;;5043545;28;20018;-62
2023/07/13 12:17:49;;;;;;;2.08;1.25;;;29.40;30.90;;;;;;5045773;28;20425;-62
2023/07/13 12:20:38;;;;;;;2.17;1.10;;;29.20;31.00;;;;;;5046874;28;20067;-63
2023/07/13 12:23:10;;;;;;;3.30;1.00;;;29.00;31.10;;;;;;5045225;28;20025;-63
2023/07/13 12:25:36;;;;;;;3.67;1.30;;;28.90;31.00;;;;;;5048635;28;20097;-61
2023/07/13 12:28:21;;;;;;;2.63;1.00;;;28.80;32.10;;;;;;5041404;28;20108;-63
2023/07/13 12:30:49;;;;;;;4.38;1.20;;;28.70;31.50;;;;;;5045784;28;20037;-64
2023/07/13 12:33:16;;;;;;;2.95;0.80;;;28.60;32.10;;;;;;5042063;28;20021;-63
2023/07/13 12:35:52;;;;;;;2.45;0.85;;;28.60;32.00;;;;;;5046658;28;20029;-63
2023/07/13 12:38:21;;;;;;;1.38;0.73;;;28.70;32.10;;;;;;5040629;28;20029;-63
2023/07/13 12:40:50;;;;;;;4.45;1.10;;;28.80;32.90;;;;;;5041752;28;20063;-63
2023/07/13 12:43:16;;;;;;;2.50;0.88;;;28.80;33.90;;;;;;5029647;28;20033;-62
2023/07/13 12:46:01;;;;;;;2.30;0.90;;;29.00;33.50;;;;;;5046474;28;20593;-63
2023/07/13 12:48:28;;;;;;;1.88;0.82;;;29.20;31.00;;;;;;5041271;28;20075;-62
2023/07/13 12:50:55;;;;;;;1.98;1.10;;;29.30;31.80;;;;;;5039500;28;20055;-64
2023/07/13 12:53:30;;;;;;;4.88;1.10;;;29.40;31.30;;;;;;5044766;28;20032;-64
2023/07/13 12:55:59;;;;;;;2.35;0.90;;;29.50;30.40;;;;;;5043472;28;20056;-64